PWSweather.com
Personal Weather Stations
Station Observations
SHAHALMS1
Eftra, Falkenberg, HA

EftraFalkenberg, HA

Lat: 56.85, Lon: 12.65

Elevation: 140

Station Type:

http://hem.passagen.se/risarp101

High Low Average
Temperature 65.8°F18.8°C 53.8°F12.1°C 59.2°F15.1°C
Dew Point 60.5°F15.8°C 42.1°F5.6°C 52.1°F11.2°C
Winds 11.9 mph 19.2 kmh Calm Calm 6.0 mph SW9.7 kmh SW
Wind Gusts 27.9 mph44.9 kmh -- 14.0 mph22.5 kmh
Humidity 92% 64% 78%
Pressure 30.07 in1018.3 mb 29.92 in1013.2 mb -
Precipitation 0.47 in11.9 mm - -
Hour Temp Dew Point Humidity Winds Wind Gusts Pressure Precip Precip Rate Daily Precip Total
12:00 AM 54.3°F12.4°C 42.4°F5.8°C 64% 3.2 mph WNW5.1 kmh WNW 5.4 mph8.7 kmh 30.07 in1018.3 mb 0.00 in0.0 mm 0.00 in0.0 mm 0.00 in0.0 mm
12:10 AM 54.1°F12.3°C 42.2°F5.7°C 64% 0.9 mph W1.4 kmh W 3.9 mph6.3 kmh 30.07 in1018.3 mb 0.00 in0.0 mm 0.00 in0.0 mm 0.00 in0.0 mm
12:20 AM 54.0°F12.2°C 42.1°F5.6°C 64% Calm Calm -- 30.07 in1018.3 mb 0.00 in0.0 mm 0.00 in0.0 mm 0.00 in0.0 mm
12:30 AM 54.0°F12.2°C 42.5°F5.8°C 65% Calm Calm -- 30.07 in1018.3 mb 0.00 in0.0 mm 0.00 in0.0 mm 0.00 in0.0 mm
12:40 AM 54.0°F12.2°C 42.5°F5.8°C 65% 0.8 mph W1.3 kmh W 3.2 mph5.1 kmh 30.04 in1017.3 mb 0.00 in0.0 mm 0.00 in0.0 mm 0.00 in0.0 mm
12:50 AM 54.1°F12.3°C 43.0°F6.1°C 66% Calm Calm -- 30.04 in1017.3 mb 0.00 in0.0 mm 0.00 in0.0 mm 0.00 in0.0 mm
01:00 AM 54.0°F12.2°C 42.9°F6.1°C 66% 3.4 mph WSW5.5 kmh WSW 5.7 mph9.2 kmh 30.07 in1018.3 mb 0.00 in0.0 mm 0.00 in0.0 mm 0.00 in0.0 mm
01:10 AM 54.0°F12.2°C 42.9°F6.1°C 66% 2.6 mph W4.2 kmh W 3.2 mph5.1 kmh 30.07 in1018.3 mb 0.00 in0.0 mm 0.00 in0.0 mm 0.00 in0.0 mm
01:20 AM 53.8°F12.1°C 42.7°F5.9°C 66% 1.8 mph WSW2.9 kmh WSW 5.0 mph8.0 kmh 30.07 in1018.3 mb 0.00 in0.0 mm 0.00 in0.0 mm 0.00 in0.0 mm
01:30 AM 53.8°F12.1°C 43.1°F6.2°C 67% 2.0 mph SW3.2 kmh SW 5.7 mph9.2 kmh 30.07 in1018.3 mb 0.00 in0.0 mm 0.00 in0.0 mm 0.00 in0.0 mm
01:40 AM 53.8°F12.1°C 43.1°F6.2°C 67% 4.7 mph W7.6 kmh W 5.7 mph9.2 kmh 30.07 in1018.3 mb 0.00 in0.0 mm 0.00 in0.0 mm 0.00 in0.0 mm
01:50 AM 54.0°F12.2°C 43.2°F6.2°C 67% 4.7 mph W7.6 kmh W 5.7 mph9.2 kmh 30.07 in1018.3 mb 0.00 in0.0 mm 0.00 in0.0 mm 0.00 in0.0 mm
02:00 AM 54.1°F12.3°C 43.8°F6.6°C 68% 4.7 mph W7.6 kmh W 5.7 mph9.2 kmh 30.07 in1018.3 mb 0.00 in0.0 mm 0.00 in0.0 mm 0.00 in0.0 mm
02:10 AM 54.3°F12.4°C 44.0°F6.7°C 68% Calm Calm -- 30.04 in1017.3 mb 0.00 in0.0 mm 0.00 in0.0 mm 0.00 in0.0 mm
02:20 AM 54.3°F12.4°C 44.4°F6.9°C 69% 2.4 mph S3.9 kmh S 6.4 mph10.3 kmh 30.04 in1017.3 mb 0.00 in0.0 mm 0.00 in0.0 mm 0.00 in0.0 mm
02:30 AM 54.9°F12.7°C 45.3°F7.4°C 70% 1.6 mph S2.6 kmh S 3.2 mph5.1 kmh 30.04 in1017.3 mb 0.00 in0.0 mm 0.00 in0.0 mm 0.00 in0.0 mm
02:40 AM 55.8°F13.2°C 46.5°F8.1°C 71% 1.5 mph S2.4 kmh S 1.8 mph2.9 kmh 30.04 in1017.3 mb 0.00 in0.0 mm 0.00 in0.0 mm 0.00 in0.0 mm
02:50 AM 56.7°F13.7°C 47.4°F8.6°C 71% 1.5 mph S2.4 kmh S 1.8 mph2.9 kmh 30.04 in1017.3 mb 0.00 in0.0 mm 0.00 in0.0 mm 0.00 in0.0 mm
03:00 AM 57.2°F14.0°C 47.9°F8.8°C 71% 1.5 mph S2.4 kmh S 1.8 mph2.9 kmh 30.04 in1017.3 mb 0.00 in0.0 mm 0.00 in0.0 mm 0.00 in0.0 mm
03:10 AM 57.7°F14.3°C 48.0°F8.9°C 70% 1.5 mph S2.4 kmh S 1.8 mph2.9 kmh 30.01 in1016.3 mb 0.00 in0.0 mm 0.00 in0.0 mm 0.00 in0.0 mm
03:20 AM 57.6°F14.2°C 50.0°F10.0°C 76% 6.1 mph S9.8 kmh S 10.0 mph16.1 kmh 30.01 in1016.3 mb 0.00 in0.0 mm 0.00 in0.0 mm 0.00 in0.0 mm
03:30 AM 56.8°F13.8°C 50.1°F10.1°C 78% 4.8 mph S7.7 kmh S 9.7 mph15.6 kmh 30.01 in1016.3 mb 0.05 in1.3 mm 0.30 in7.6 mm 0.05 in1.3 mm
03:40 AM 56.5°F13.6°C 49.7°F9.8°C 78% 1.0 mph SW1.6 kmh SW 8.9 mph14.3 kmh 30.01 in1016.3 mb 0.05 in1.3 mm 0.00 in0.0 mm 0.05 in1.3 mm
03:50 AM 56.1°F13.4°C 49.7°F9.8°C 79% 0.4 mph WSW0.6 kmh WSW 5.0 mph8.0 kmh 30.01 in1016.3 mb 0.14 in3.6 mm 0.54 in13.7 mm 0.14 in3.6 mm
04:00 AM 56.1°F13.4°C 50.7°F10.4°C 82% 4.4 mph SW7.1 kmh SW 10.0 mph16.1 kmh 29.98 in1015.2 mb 0.14 in3.6 mm 0.00 in0.0 mm 0.14 in3.6 mm
04:10 AM 56.3°F13.5°C 51.5°F10.8°C 84% 5.8 mph S9.3 kmh S 14.0 mph22.5 kmh 30.01 in1016.3 mb 0.14 in3.6 mm 0.00 in0.0 mm 0.14 in3.6 mm
04:20 AM 56.5°F13.6°C 52.3°F11.3°C 86% 5.8 mph S9.3 kmh S 16.1 mph25.9 kmh 30.01 in1016.3 mb 0.14 in3.6 mm 0.00 in0.0 mm 0.14 in3.6 mm
04:30 AM 56.7°F13.7°C 52.8°F11.6°C 87% 6.7 mph S10.8 kmh S 16.1 mph25.9 kmh 30.01 in1016.3 mb 0.09 in2.3 mm 0.00 in0.0 mm 0.14 in3.6 mm
04:40 AM 56.5°F13.6°C 52.7°F11.5°C 87% 7.3 mph S11.7 kmh S 16.1 mph25.9 kmh 30.01 in1016.3 mb 0.09 in2.3 mm 0.00 in0.0 mm 0.14 in3.6 mm
04:50 AM 56.5°F13.6°C 52.3°F11.3°C 86% 5.5 mph S8.9 kmh S 12.5 mph20.1 kmh 30.01 in1016.3 mb 0.00 in0.0 mm 0.00 in0.0 mm 0.14 in3.6 mm
05:00 AM 56.5°F13.6°C 52.3°F11.3°C 86% 5.3 mph S8.5 kmh S 12.9 mph20.8 kmh 29.98 in1015.2 mb 0.00 in0.0 mm 0.00 in0.0 mm 0.14 in3.6 mm
05:10 AM 56.7°F13.7°C 52.8°F11.6°C 87% 5.0 mph S8.0 kmh S 10.0 mph16.1 kmh 29.98 in1015.2 mb 0.00 in0.0 mm 0.00 in0.0 mm 0.14 in3.6 mm
05:20 AM 56.5°F13.6°C 52.3°F11.3°C 86% 4.5 mph S7.2 kmh S 11.8 mph19.0 kmh 29.98 in1015.2 mb 0.00 in0.0 mm 0.00 in0.0 mm 0.14 in3.6 mm
05:30 AM 56.5°F13.6°C 52.7°F11.5°C 87% 2.8 mph S4.5 kmh S 9.3 mph15.0 kmh 29.98 in1015.2 mb 0.09 in2.3 mm 0.54 in13.7 mm 0.23 in5.8 mm
05:40 AM 56.8°F13.8°C 53.6°F12.0°C 89% 6.2 mph S10.0 kmh S 16.5 mph26.6 kmh 29.95 in1014.2 mb 0.09 in2.3 mm 0.00 in0.0 mm 0.23 in5.8 mm
05:50 AM 57.2°F14.0°C 54.3°F12.4°C 90% 7.0 mph S11.3 kmh S 15.4 mph24.8 kmh 29.95 in1014.2 mb 0.09 in2.3 mm 0.00 in0.0 mm 0.23 in5.8 mm
06:00 AM 57.2°F14.0°C 54.3°F12.4°C 90% 5.9 mph S9.5 kmh S 16.8 mph27.0 kmh 29.95 in1014.2 mb 0.09 in2.3 mm 0.00 in0.0 mm 0.23 in5.8 mm
06:10 AM 57.4°F14.1°C 54.2°F12.3°C 89% 6.0 mph S9.7 kmh S 16.8 mph27.0 kmh 29.95 in1014.2 mb 0.09 in2.3 mm 0.00 in0.0 mm 0.23 in5.8 mm
06:20 AM 57.4°F14.1°C 54.2°F12.3°C 89% 4.7 mph S7.6 kmh S 15.7 mph25.3 kmh 29.95 in1014.2 mb 0.09 in2.3 mm 0.00 in0.0 mm 0.23 in5.8 mm
06:30 AM 57.6°F14.2°C 54.3°F12.4°C 89% 6.7 mph S10.8 kmh S 16.5 mph26.6 kmh 29.95 in1014.2 mb 0.00 in0.0 mm 0.00 in0.0 mm 0.23 in5.8 mm
06:40 AM 57.7°F14.3°C 54.8°F12.7°C 90% 5.3 mph S8.5 kmh S 21.1 mph34.0 kmh 29.92 in1013.2 mb 0.05 in1.3 mm 0.30 in7.6 mm 0.28 in7.1 mm
06:50 AM 57.7°F14.3°C 54.8°F12.7°C 90% 5.4 mph SSW8.7 kmh SSW 19.7 mph31.7 kmh 29.92 in1013.2 mb 0.05 in1.3 mm 0.00 in0.0 mm 0.28 in7.1 mm
07:00 AM 57.7°F14.3°C 55.1°F12.8°C 91% 8.0 mph S12.9 kmh S 19.7 mph31.7 kmh 29.95 in1014.2 mb 0.15 in3.8 mm 0.12 in3.0 mm 0.38 in9.7 mm
07:10 AM 57.2°F14.0°C 54.6°F12.6°C 91% 7.9 mph S12.7 kmh S 16.5 mph26.6 kmh 29.92 in1013.2 mb 0.15 in3.8 mm 0.00 in0.0 mm 0.38 in9.7 mm
07:20 AM 57.2°F14.0°C 54.6°F12.6°C 91% 6.7 mph S10.8 kmh S 14.0 mph22.5 kmh 29.92 in1013.2 mb 0.15 in3.8 mm 0.00 in0.0 mm 0.38 in9.7 mm
07:30 AM 57.4°F14.1°C 55.1°F12.8°C 92% 9.0 mph S14.5 kmh S 19.7 mph31.7 kmh 29.95 in1014.2 mb 0.24 in6.1 mm 0.54 in13.7 mm 0.47 in11.9 mm
07:40 AM 57.6°F14.2°C 55.3°F12.9°C 92% 9.4 mph S15.1 kmh S 21.1 mph34.0 kmh 29.95 in1014.2 mb 0.19 in4.8 mm 0.00 in0.0 mm 0.47 in11.9 mm
07:50 AM 57.7°F14.3°C 55.4°F13.0°C 92% 8.4 mph S13.5 kmh S 16.8 mph27.0 kmh 29.95 in1014.2 mb 0.14 in3.6 mm 0.00 in0.0 mm 0.47 in11.9 mm
08:00 AM 57.9°F14.4°C 55.0°F12.8°C 90% 10.7 mph S17.2 kmh S 20.8 mph33.5 kmh 29.92 in1013.2 mb 0.09 in2.3 mm 0.00 in0.0 mm 0.47 in11.9 mm
08:10 AM 58.1°F14.5°C 55.2°F12.9°C 90% 8.9 mph S14.3 kmh S 16.8 mph27.0 kmh 29.95 in1014.2 mb 0.09 in2.3 mm 0.00 in0.0 mm 0.47 in11.9 mm
08:20 AM 58.1°F14.5°C 55.2°F12.9°C 90% 8.2 mph S13.2 kmh S 23.3 mph37.5 kmh 29.95 in1014.2 mb 0.09 in2.3 mm 0.00 in0.0 mm 0.47 in11.9 mm
08:30 AM 58.3°F14.6°C 55.1°F12.8°C 89% 9.2 mph S14.8 kmh S 23.6 mph38.0 kmh 29.92 in1013.2 mb 0.00 in0.0 mm 0.00 in0.0 mm 0.47 in11.9 mm
08:40 AM 58.3°F14.6°C 55.4°F13.0°C 90% 9.8 mph S15.8 kmh S 24.7 mph39.8 kmh 29.95 in1014.2 mb 0.00 in0.0 mm 0.00 in0.0 mm 0.47 in11.9 mm
08:50 AM 58.5°F14.7°C 55.2°F12.9°C 89% 9.3 mph SSW15.0 kmh SSW 24.3 mph39.1 kmh 29.95 in1014.2 mb 0.00 in0.0 mm 0.00 in0.0 mm 0.47 in11.9 mm
09:00 AM 58.6°F14.8°C 55.4°F13.0°C 89% 10.9 mph S17.5 kmh S 27.2 mph43.8 kmh 29.95 in1014.2 mb 0.00 in0.0 mm 0.00 in0.0 mm 0.47 in11.9 mm
09:10 AM 58.6°F14.8°C 55.1°F12.8°C 88% 8.5 mph S13.7 kmh S 16.8 mph27.0 kmh 29.95 in1014.2 mb 0.00 in0.0 mm 0.00 in0.0 mm 0.47 in11.9 mm
09:20 AM 58.8°F14.9°C 55.3°F12.9°C 88% 10.8 mph S17.4 kmh S 23.6 mph38.0 kmh 29.95 in1014.2 mb 0.00 in0.0 mm 0.00 in0.0 mm 0.47 in11.9 mm
09:30 AM 59.2°F15.1°C 55.3°F12.9°C 87% 11.9 mph S19.2 kmh S 27.9 mph44.9 kmh 29.95 in1014.2 mb 0.00 in0.0 mm 0.00 in0.0 mm 0.47 in11.9 mm
09:40 AM 59.0°F15.0°C 54.8°F12.7°C 86% 7.8 mph S12.6 kmh S 20.0 mph32.2 kmh 29.95 in1014.2 mb 0.00 in0.0 mm 0.00 in0.0 mm 0.47 in11.9 mm
09:50 AM 59.2°F15.1°C 55.0°F12.8°C 86% 10.8 mph S17.4 kmh S 16.8 mph27.0 kmh 29.95 in1014.2 mb 0.00 in0.0 mm 0.00 in0.0 mm 0.47 in11.9 mm
10:00 AM 59.4°F15.2°C 55.2°F12.9°C 86% 9.6 mph S15.4 kmh S 19.0 mph30.6 kmh 29.95 in1014.2 mb 0.00 in0.0 mm 0.00 in0.0 mm 0.47 in11.9 mm
10:10 AM 59.5°F15.3°C 55.3°F12.9°C 86% 7.5 mph S12.1 kmh S 15.0 mph24.1 kmh 29.95 in1014.2 mb 0.00 in0.0 mm 0.00 in0.0 mm 0.47 in11.9 mm
10:20 AM 59.7°F15.4°C 55.8°F13.2°C 87% 9.1 mph SSW14.6 kmh SSW 16.5 mph26.6 kmh 29.95 in1014.2 mb 0.00 in0.0 mm 0.00 in0.0 mm 0.47 in11.9 mm
10:30 AM 59.9°F15.5°C 56.0°F13.3°C 87% 7.9 mph S12.7 kmh S 17.2 mph27.7 kmh 29.95 in1014.2 mb 0.00 in0.0 mm 0.00 in0.0 mm 0.47 in11.9 mm
10:40 AM 60.1°F15.6°C 56.2°F13.4°C 87% 8.9 mph S14.3 kmh S 15.7 mph25.3 kmh 29.95 in1014.2 mb 0.00 in0.0 mm 0.00 in0.0 mm 0.47 in11.9 mm
10:50 AM 60.1°F15.6°C 56.5°F13.6°C 88% 9.2 mph S14.8 kmh S 19.3 mph31.1 kmh 29.95 in1014.2 mb 0.00 in0.0 mm 0.00 in0.0 mm 0.47 in11.9 mm
11:00 AM 60.3°F15.7°C 56.4°F13.6°C 87% 8.1 mph S13.0 kmh S 16.1 mph25.9 kmh 29.95 in1014.2 mb 0.00 in0.0 mm 0.00 in0.0 mm 0.47 in11.9 mm
11:10 AM 60.8°F16.0°C 57.2°F14.0°C 88% 7.6 mph S12.2 kmh S 14.0 mph22.5 kmh 29.92 in1013.2 mb 0.00 in0.0 mm 0.00 in0.0 mm 0.47 in11.9 mm
11:20 AM 60.8°F16.0°C 56.9°F13.8°C 87% 8.2 mph S13.2 kmh S 20.4 mph32.8 kmh 29.92 in1013.2 mb 0.00 in0.0 mm 0.00 in0.0 mm 0.47 in11.9 mm
11:30 AM 61.2°F16.2°C 57.3°F14.1°C 87% 7.0 mph S11.3 kmh S 13.6 mph21.9 kmh 29.92 in1013.2 mb 0.00 in0.0 mm 0.00 in0.0 mm 0.47 in11.9 mm
11:40 AM 61.2°F16.2°C 57.3°F14.1°C 87% 7.8 mph SSW12.6 kmh SSW 17.5 mph28.2 kmh 29.92 in1013.2 mb 0.00 in0.0 mm 0.00 in0.0 mm 0.47 in11.9 mm
11:50 AM 61.0°F16.1°C 56.8°F13.8°C 86% 6.9 mph S11.1 kmh S 17.2 mph27.7 kmh 29.92 in1013.2 mb 0.00 in0.0 mm 0.00 in0.0 mm 0.47 in11.9 mm
12:00 PM 61.2°F16.2°C 57.3°F14.1°C 87% 8.5 mph S13.7 kmh S 22.5 mph36.2 kmh 29.92 in1013.2 mb 0.00 in0.0 mm 0.00 in0.0 mm 0.47 in11.9 mm
12:10 PM 61.9°F16.6°C 58.3°F14.6°C 88% 7.9 mph S12.7 kmh S 17.5 mph28.2 kmh 29.92 in1013.2 mb 0.00 in0.0 mm 0.00 in0.0 mm 0.47 in11.9 mm
12:20 PM 62.2°F16.8°C 58.6°F14.8°C 88% 7.4 mph S11.9 kmh S 16.1 mph25.9 kmh 29.92 in1013.2 mb 0.00 in0.0 mm 0.00 in0.0 mm 0.47 in11.9 mm
12:30 PM 62.4°F16.9°C 57.8°F14.3°C 85% 7.7 mph S12.4 kmh S 19.7 mph31.7 kmh 29.92 in1013.2 mb 0.00 in0.0 mm 0.00 in0.0 mm 0.47 in11.9 mm
12:40 PM 62.8°F17.1°C 58.2°F14.6°C 85% 6.1 mph S9.8 kmh S 10.0 mph16.1 kmh 29.92 in1013.2 mb 0.00 in0.0 mm 0.00 in0.0 mm 0.47 in11.9 mm
12:50 PM 62.8°F17.1°C 57.9°F14.4°C 84% 6.6 mph SSW10.6 kmh SSW 19.0 mph30.6 kmh 29.92 in1013.2 mb 0.00 in0.0 mm 0.00 in0.0 mm 0.47 in11.9 mm
01:00 PM 62.6°F17.0°C 58.0°F14.4°C 85% 6.3 mph SSW10.1 kmh SSW 16.1 mph25.9 kmh 29.92 in1013.2 mb 0.00 in0.0 mm 0.00 in0.0 mm 0.47 in11.9 mm
01:10 PM 63.1°F17.3°C 58.9°F14.9°C 86% 7.5 mph S12.1 kmh S 20.0 mph32.2 kmh 29.92 in1013.2 mb 0.00 in0.0 mm 0.00 in0.0 mm 0.47 in11.9 mm
01:20 PM 63.7°F17.6°C 59.4°F15.2°C 86% 6.6 mph S10.6 kmh S 19.7 mph31.7 kmh 29.92 in1013.2 mb 0.00 in0.0 mm 0.00 in0.0 mm 0.47 in11.9 mm
01:30 PM 64.2°F17.9°C 59.9°F15.5°C 86% 7.1 mph SSW11.4 kmh SSW 15.0 mph24.1 kmh 29.92 in1013.2 mb 0.00 in0.0 mm 0.00 in0.0 mm 0.47 in11.9 mm
01:40 PM 64.6°F18.1°C 60.0°F15.6°C 85% 4.9 mph WSW7.9 kmh WSW 15.4 mph24.8 kmh 29.92 in1013.2 mb 0.00 in0.0 mm 0.00 in0.0 mm 0.47 in11.9 mm
01:50 PM 64.9°F18.3°C 59.7°F15.4°C 83% 6.7 mph W10.8 kmh W 19.3 mph31.1 kmh 29.92 in1013.2 mb 0.00 in0.0 mm 0.00 in0.0 mm 0.47 in11.9 mm
02:00 PM 65.3°F18.5°C 59.7°F15.4°C 82% 6.1 mph W9.8 kmh W 16.5 mph26.6 kmh 29.92 in1013.2 mb 0.00 in0.0 mm 0.00 in0.0 mm 0.47 in11.9 mm
02:10 PM 65.7°F18.7°C 60.0°F15.6°C 82% 5.9 mph W9.5 kmh W 13.6 mph21.9 kmh 29.92 in1013.2 mb 0.00 in0.0 mm 0.00 in0.0 mm 0.47 in11.9 mm
02:20 PM 65.7°F18.7°C 59.7°F15.4°C 81% 7.8 mph W12.6 kmh W 17.5 mph28.2 kmh 29.92 in1013.2 mb 0.00 in0.0 mm 0.00 in0.0 mm 0.47 in11.9 mm
02:30 PM 65.5°F18.6°C 59.1°F15.1°C 80% 5.4 mph SW8.7 kmh SW 12.2 mph19.6 kmh 29.92 in1013.2 mb 0.00 in0.0 mm 0.00 in0.0 mm 0.47 in11.9 mm
02:40 PM 65.8°F18.8°C 59.5°F15.3°C 80% 5.5 mph SW8.9 kmh SW 14.0 mph22.5 kmh 29.92 in1013.2 mb 0.00 in0.0 mm 0.00 in0.0 mm 0.47 in11.9 mm
02:50 PM 65.5°F18.6°C 59.1°F15.1°C 80% 6.9 mph SSW11.1 kmh SSW 19.3 mph31.1 kmh 29.92 in1013.2 mb 0.00 in0.0 mm 0.00 in0.0 mm 0.47 in11.9 mm
03:00 PM 65.3°F18.5°C 59.0°F15.0°C 80% 6.6 mph SW10.6 kmh SW 15.7 mph25.3 kmh 29.92 in1013.2 mb 0.00 in0.0 mm 0.00 in0.0 mm 0.47 in11.9 mm
03:10 PM 64.9°F18.3°C 59.0°F15.0°C 81% 5.2 mph SW8.4 kmh SW 10.4 mph16.7 kmh 29.92 in1013.2 mb 0.00 in0.0 mm 0.00 in0.0 mm 0.47 in11.9 mm
03:20 PM 65.5°F18.6°C 60.5°F15.8°C 84% 7.2 mph SW11.6 kmh SW 20.4 mph32.8 kmh 29.92 in1013.2 mb 0.00 in0.0 mm 0.00 in0.0 mm 0.47 in11.9 mm
03:30 PM 65.5°F18.6°C 60.2°F15.7°C 83% 6.0 mph W9.7 kmh W 12.9 mph20.8 kmh 29.92 in1013.2 mb 0.00 in0.0 mm 0.00 in0.0 mm 0.47 in11.9 mm
03:40 PM 65.7°F18.7°C 60.0°F15.6°C 82% 5.7 mph W9.2 kmh W 10.4 mph16.7 kmh 29.92 in1013.2 mb 0.00 in0.0 mm 0.00 in0.0 mm 0.47 in11.9 mm
03:50 PM 65.3°F18.5°C 59.0°F15.0°C 80% 4.3 mph WSW6.9 kmh WSW 10.4 mph16.7 kmh 29.92 in1013.2 mb 0.00 in0.0 mm 0.00 in0.0 mm 0.47 in11.9 mm
04:00 PM 65.8°F18.8°C 59.5°F15.3°C 80% 4.7 mph WNW7.6 kmh WNW 12.5 mph20.1 kmh 29.92 in1013.2 mb 0.00 in0.0 mm 0.00 in0.0 mm 0.47 in11.9 mm
04:10 PM 65.3°F18.5°C 57.9°F14.4°C 77% 6.5 mph WNW10.5 kmh WNW 19.7 mph31.7 kmh 29.92 in1013.2 mb 0.00 in0.0 mm 0.00 in0.0 mm 0.47 in11.9 mm
04:20 PM 64.9°F18.3°C 57.2°F14.0°C 76% 5.3 mph WNW8.5 kmh WNW 12.2 mph19.6 kmh 29.92 in1013.2 mb 0.00 in0.0 mm 0.00 in0.0 mm 0.47 in11.9 mm
04:30 PM 64.6°F18.1°C 55.7°F13.2°C 73% 6.8 mph WNW10.9 kmh WNW 18.3 mph29.5 kmh 29.95 in1014.2 mb 0.00 in0.0 mm 0.00 in0.0 mm 0.47 in11.9 mm
04:40 PM 64.0°F17.8°C 54.8°F12.7°C 72% 6.0 mph WNW9.7 kmh WNW 16.5 mph26.6 kmh 29.95 in1014.2 mb 0.00 in0.0 mm 0.00 in0.0 mm 0.47 in11.9 mm
04:50 PM 64.0°F17.8°C 55.2°F12.9°C 73% 5.5 mph NW8.9 kmh NW 16.8 mph27.0 kmh 29.95 in1014.2 mb 0.00 in0.0 mm 0.00 in0.0 mm 0.47 in11.9 mm
05:00 PM 63.7°F17.6°C 53.7°F12.1°C 70% 6.0 mph W9.7 kmh W 13.6 mph21.9 kmh 29.98 in1015.2 mb 0.00 in0.0 mm 0.00 in0.0 mm 0.47 in11.9 mm
05:10 PM 63.3°F17.4°C 53.4°F11.9°C 70% 5.2 mph W8.4 kmh W 19.7 mph31.7 kmh 29.95 in1014.2 mb 0.00 in0.0 mm 0.00 in0.0 mm 0.47 in11.9 mm
05:20 PM 63.1°F17.3°C 53.2°F11.8°C 70% 5.5 mph WNW8.9 kmh WNW 16.1 mph25.9 kmh 29.95 in1014.2 mb 0.00 in0.0 mm 0.00 in0.0 mm 0.47 in11.9 mm
05:30 PM 62.6°F17.0°C 52.3°F11.3°C 69% 5.2 mph WNW8.4 kmh WNW 16.1 mph25.9 kmh 29.95 in1014.2 mb 0.00 in0.0 mm 0.00 in0.0 mm 0.47 in11.9 mm
05:40 PM 62.1°F16.7°C 52.5°F11.4°C 71% 3.5 mph W5.6 kmh W 9.3 mph15.0 kmh 29.95 in1014.2 mb 0.00 in0.0 mm 0.00 in0.0 mm 0.47 in11.9 mm
05:50 PM 61.9°F16.6°C 52.8°F11.6°C 72% 6.4 mph WNW10.3 kmh WNW 15.7 mph25.3 kmh 29.95 in1014.2 mb 0.00 in0.0 mm 0.00 in0.0 mm 0.47 in11.9 mm
06:00 PM 61.7°F16.5°C 52.2°F11.2°C 71% 6.9 mph W11.1 kmh W 19.0 mph30.6 kmh 29.95 in1014.2 mb 0.00 in0.0 mm 0.00 in0.0 mm 0.47 in11.9 mm
06:10 PM 61.5°F16.4°C 51.3°F10.7°C 69% 7.3 mph W11.7 kmh W 19.0 mph30.6 kmh 29.92 in1013.2 mb 0.00 in0.0 mm 0.00 in0.0 mm 0.47 in11.9 mm
06:20 PM 61.0°F16.1°C 50.3°F10.2°C 68% 5.6 mph WNW9.0 kmh WNW 16.8 mph27.0 kmh 29.92 in1013.2 mb 0.00 in0.0 mm 0.00 in0.0 mm 0.47 in11.9 mm
06:30 PM 60.4°F15.8°C 49.4°F9.7°C 67% 7.1 mph WNW11.4 kmh WNW 16.5 mph26.6 kmh 29.92 in1013.2 mb 0.00 in0.0 mm 0.00 in0.0 mm 0.47 in11.9 mm
06:40 PM 59.9°F15.5°C 48.5°F9.2°C 66% 7.7 mph W12.4 kmh W 19.0 mph30.6 kmh 29.95 in1014.2 mb 0.00 in0.0 mm 0.00 in0.0 mm 0.47 in11.9 mm
06:50 PM 59.5°F15.3°C 48.6°F9.2°C 67% 6.5 mph WNW10.5 kmh WNW 20.4 mph32.8 kmh 29.95 in1014.2 mb 0.00 in0.0 mm 0.00 in0.0 mm 0.47 in11.9 mm
07:00 PM 59.5°F15.3°C 48.6°F9.2°C 67% 7.3 mph W11.7 kmh W 19.3 mph31.1 kmh 29.95 in1014.2 mb 0.00 in0.0 mm 0.00 in0.0 mm 0.47 in11.9 mm
07:10 PM 59.2°F15.1°C 48.2°F9.0°C 67% 5.4 mph W8.7 kmh W 14.0 mph22.5 kmh 29.95 in1014.2 mb 0.00 in0.0 mm 0.00 in0.0 mm 0.47 in11.9 mm
07:20 PM 58.6°F14.8°C 47.7°F8.7°C 67% 3.5 mph WNW5.6 kmh WNW 11.8 mph19.0 kmh 29.95 in1014.2 mb 0.00 in0.0 mm 0.00 in0.0 mm 0.47 in11.9 mm
07:30 PM 58.3°F14.6°C 47.4°F8.6°C 67% 5.2 mph WNW8.4 kmh WNW 12.9 mph20.8 kmh 29.95 in1014.2 mb 0.00 in0.0 mm 0.00 in0.0 mm 0.47 in11.9 mm
07:40 PM 58.3°F14.6°C 47.8°F8.8°C 68% 5.1 mph W8.2 kmh W 15.0 mph24.1 kmh 29.95 in1014.2 mb 0.00 in0.0 mm 0.00 in0.0 mm 0.47 in11.9 mm
07:50 PM 58.3°F14.6°C 47.8°F8.8°C 68% 4.9 mph WNW7.9 kmh WNW 13.6 mph21.9 kmh 29.95 in1014.2 mb 0.00 in0.0 mm 0.00 in0.0 mm 0.47 in11.9 mm
08:00 PM 58.3°F14.6°C 47.8°F8.8°C 68% 6.0 mph WNW9.7 kmh WNW 16.8 mph27.0 kmh 29.95 in1014.2 mb 0.00 in0.0 mm 0.00 in0.0 mm 0.47 in11.9 mm
08:10 PM 58.3°F14.6°C 47.8°F8.8°C 68% 5.9 mph W9.5 kmh W 16.1 mph25.9 kmh 29.95 in1014.2 mb 0.00 in0.0 mm 0.00 in0.0 mm 0.47 in11.9 mm
08:20 PM 58.3°F14.6°C 47.8°F8.8°C 68% 5.0 mph W8.0 kmh W 12.5 mph20.1 kmh 29.95 in1014.2 mb 0.00 in0.0 mm 0.00 in0.0 mm 0.47 in11.9 mm
08:30 PM 58.5°F14.7°C 47.9°F8.8°C 68% 5.3 mph W8.5 kmh W 12.9 mph20.8 kmh 29.98 in1015.2 mb 0.00 in0.0 mm 0.00 in0.0 mm 0.47 in11.9 mm
08:40 PM 58.5°F14.7°C 47.9°F8.8°C 68% 6.8 mph W10.9 kmh W 21.1 mph34.0 kmh 29.98 in1015.2 mb 0.00 in0.0 mm 0.00 in0.0 mm 0.47 in11.9 mm
08:50 PM 58.1°F14.5°C 47.2°F8.4°C 67% 4.7 mph WNW7.6 kmh WNW 10.0 mph16.1 kmh 29.98 in1015.2 mb 0.00 in0.0 mm 0.00 in0.0 mm 0.47 in11.9 mm
09:00 PM 57.6°F14.2°C 46.7°F8.2°C 67% 4.7 mph W7.6 kmh W 14.0 mph22.5 kmh 29.98 in1015.2 mb 0.00 in0.0 mm 0.00 in0.0 mm 0.47 in11.9 mm
09:10 PM 57.6°F14.2°C 46.7°F8.2°C 67% 4.7 mph W7.6 kmh W 11.8 mph19.0 kmh 29.98 in1015.2 mb 0.00 in0.0 mm 0.00 in0.0 mm 0.47 in11.9 mm
09:20 PM 57.6°F14.2°C 46.7°F8.2°C 67% 5.0 mph W8.0 kmh W 19.0 mph30.6 kmh 29.98 in1015.2 mb 0.00 in0.0 mm 0.00 in0.0 mm 0.47 in11.9 mm
09:30 PM 57.4°F14.1°C 46.5°F8.1°C 67% 4.9 mph WNW7.9 kmh WNW 13.6 mph21.9 kmh 29.98 in1015.2 mb 0.00 in0.0 mm 0.00 in0.0 mm 0.47 in11.9 mm
09:40 PM 57.4°F14.1°C 46.5°F8.1°C 67% 3.3 mph WNW5.3 kmh WNW 10.4 mph16.7 kmh 29.98 in1015.2 mb 0.00 in0.0 mm 0.00 in0.0 mm 0.47 in11.9 mm
09:50 PM 57.4°F14.1°C 46.9°F8.3°C 68% 4.4 mph W7.1 kmh W 14.0 mph22.5 kmh 29.98 in1015.2 mb 0.00 in0.0 mm 0.00 in0.0 mm 0.47 in11.9 mm
10:00 PM 57.6°F14.2°C 47.1°F8.4°C 68% 6.3 mph WNW10.1 kmh WNW 16.8 mph27.0 kmh 29.98 in1015.2 mb 0.00 in0.0 mm 0.00 in0.0 mm 0.47 in11.9 mm
10:10 PM 57.7°F14.3°C 47.2°F8.4°C 68% 6.3 mph W10.1 kmh W 15.0 mph24.1 kmh 29.98 in1015.2 mb 0.00 in0.0 mm 0.00 in0.0 mm 0.47 in11.9 mm
10:20 PM 57.7°F14.3°C 47.6°F8.7°C 69% 5.2 mph W8.4 kmh W 15.0 mph24.1 kmh 29.98 in1015.2 mb 0.00 in0.0 mm 0.00 in0.0 mm 0.47 in11.9 mm
10:30 PM 57.6°F14.2°C 47.5°F8.6°C 69% 4.9 mph WNW7.9 kmh WNW 15.7 mph25.3 kmh 29.98 in1015.2 mb 0.00 in0.0 mm 0.00 in0.0 mm 0.47 in11.9 mm
10:40 PM 57.4°F14.1°C 47.3°F8.5°C 69% 5.0 mph WNW8.0 kmh WNW 15.0 mph24.1 kmh 29.98 in1015.2 mb 0.00 in0.0 mm 0.00 in0.0 mm 0.47 in11.9 mm
10:50 PM 57.2°F14.0°C 46.7°F8.2°C 68% 5.7 mph WNW9.2 kmh WNW 19.7 mph31.7 kmh 29.98 in1015.2 mb 0.00 in0.0 mm 0.00 in0.0 mm 0.47 in11.9 mm
11:00 PM 56.8°F13.8°C 46.4°F8.0°C 68% 4.8 mph W7.7 kmh W 12.2 mph19.6 kmh 29.98 in1015.2 mb 0.00 in0.0 mm 0.00 in0.0 mm 0.47 in11.9 mm
11:10 PM 56.7°F13.7°C 46.2°F7.9°C 68% 7.6 mph WNW12.2 kmh WNW 20.0 mph32.2 kmh 29.98 in1015.2 mb 0.00 in0.0 mm 0.00 in0.0 mm 0.47 in11.9 mm
11:20 PM 56.8°F13.8°C 46.8°F8.2°C 69% 6.8 mph W10.9 kmh W 15.7 mph25.3 kmh 29.98 in1015.2 mb 0.00 in0.0 mm 0.00 in0.0 mm 0.47 in11.9 mm
11:30 PM 56.8°F13.8°C 46.8°F8.2°C 69% 7.2 mph WNW11.6 kmh WNW 18.3 mph29.5 kmh 29.98 in1015.2 mb 0.00 in0.0 mm 0.00 in0.0 mm 0.47 in11.9 mm
11:40 PM 56.7°F13.7°C 46.2°F7.9°C 68% 5.4 mph W8.7 kmh W 17.5 mph28.2 kmh 29.98 in1015.2 mb 0.00 in0.0 mm 0.00 in0.0 mm 0.47 in11.9 mm
11:50 PM 56.7°F13.7°C 46.2°F7.9°C 68% 6.2 mph W10.0 kmh W 14.0 mph22.5 kmh 29.98 in1015.2 mb 0.00 in0.0 mm 0.00 in0.0 mm 0.47 in11.9 mm